createdAt,value
2022-10-11T00:01:15.629Z,17.74
2022-10-11T00:03:45.436Z,17.72
2022-10-11T00:06:15.262Z,17.72
2022-10-11T00:08:45.151Z,17.69
2022-10-11T00:11:15.011Z,17.65
2022-10-11T00:13:47.726Z,17.64
2022-10-11T00:16:20.023Z,17.61
2022-10-11T00:18:52.736Z,17.60
2022-10-11T00:21:25.509Z,17.55
2022-10-11T00:23:55.503Z,17.54
2022-10-11T00:26:30.160Z,17.50
2022-10-11T00:29:02.670Z,17.47
2022-10-11T00:31:35.823Z,17.45
2022-10-11T00:34:08.412Z,17.45
2022-10-11T00:36:38.320Z,17.42
2022-10-11T00:39:08.774Z,17.42
2022-10-11T00:41:39.000Z,17.41
2022-10-11T00:44:23.278Z,17.39
2022-10-11T00:46:56.347Z,17.38
2022-10-11T00:49:35.611Z,17.37
2022-10-11T00:52:09.996Z,17.35
2022-10-11T00:54:44.604Z,17.33
2022-10-11T00:57:19.000Z,17.29
2022-10-11T00:59:55.171Z,17.27
2022-10-11T01:02:26.553Z,17.25
2022-10-11T01:05:18.031Z,17.23
2022-10-11T01:07:48.302Z,17.23
2022-10-11T01:10:18.369Z,17.19
2022-10-11T01:13:04.573Z,17.16
2022-10-11T01:15:43.208Z,17.15
2022-10-11T01:18:18.053Z,17.13
2022-10-11T01:20:58.189Z,17.11
2022-10-11T01:23:54.411Z,17.10
2022-10-11T01:27:08.716Z,17.10
2022-10-11T01:29:49.519Z,17.08
2022-10-11T01:32:27.334Z,17.05
2022-10-11T01:35:04.875Z,17.03
2022-10-11T01:37:38.899Z,17.00
2022-10-11T01:40:12.533Z,16.97
2022-10-11T01:42:44.539Z,16.93
2022-10-11T01:45:19.061Z,16.91
2022-10-11T01:48:04.157Z,16.91
2022-10-11T01:50:39.704Z,16.88
2022-10-11T01:53:25.394Z,16.85
2022-10-11T01:56:00.094Z,16.83
2022-10-11T01:58:39.355Z,16.79
2022-10-11T02:01:18.515Z,16.77
2022-10-11T02:03:58.123Z,16.77
2022-10-11T02:06:35.825Z,16.77
2022-10-11T02:09:13.907Z,16.76
2022-10-11T02:11:44.713Z,16.73
2022-10-11T02:14:19.380Z,16.69
2022-10-11T02:16:54.049Z,16.68
2022-10-11T02:19:34.667Z,16.68
2022-10-11T02:22:08.955Z,16.64
2022-10-11T02:24:42.886Z,16.63
2022-10-11T02:27:14.304Z,16.61
2022-10-11T02:29:48.160Z,16.61
2022-10-11T02:32:20.204Z,16.58
2022-10-11T02:34:56.679Z,16.56
2022-10-11T02:37:33.882Z,16.53
2022-10-11T02:40:13.559Z,16.52
2022-10-11T02:42:47.961Z,16.51
2022-10-11T02:45:22.089Z,16.49
2022-10-11T02:47:52.598Z,16.49
2022-10-11T02:50:25.735Z,16.45
2022-10-11T02:52:55.530Z,16.44
2022-10-11T02:55:25.412Z,16.42
2022-10-11T02:57:55.580Z,16.40
2022-10-11T03:00:25.732Z,16.40
2022-10-11T03:02:55.456Z,16.40
2022-10-11T03:05:27.884Z,16.39
2022-10-11T03:07:57.726Z,16.41
2022-10-11T03:10:28.430Z,16.40
2022-10-11T03:12:58.217Z,16.39
2022-10-11T03:15:28.110Z,16.37
2022-10-11T03:17:58.127Z,16.37
2022-10-11T03:20:30.656Z,16.37
2022-10-11T03:23:00.436Z,16.37
2022-10-11T03:25:33.512Z,16.34
2022-10-11T03:28:03.265Z,16.32
2022-10-11T03:30:33.301Z,16.32
2022-10-11T03:33:03.450Z,16.31
2022-10-11T03:35:36.024Z,16.30
2022-10-11T03:38:06.393Z,16.30
2022-10-11T03:40:37.504Z,16.29
2022-10-11T03:43:07.322Z,16.26
2022-10-11T03:45:37.172Z,16.25
2022-10-11T03:48:07.410Z,16.22
2022-10-11T03:50:40.131Z,16.21
2022-10-11T03:53:12.345Z,16.19
2022-10-11T03:55:42.976Z,16.18
2022-10-11T03:58:12.749Z,16.17
2022-10-11T04:00:42.633Z,16.17
2022-10-11T04:03:12.406Z,16.15
2022-10-11T04:05:44.860Z,16.14
2022-10-11T04:08:14.634Z,16.13
2022-10-11T04:10:44.716Z,16.11
2022-10-11T04:13:15.099Z,16.12
2022-10-11T04:15:44.981Z,16.11
2022-10-11T04:18:14.837Z,16.11
2022-10-11T04:20:47.476Z,16.07
2022-10-11T04:23:17.258Z,16.06
2022-10-11T04:25:48.387Z,16.05
2022-10-11T04:28:18.277Z,16.03
2022-10-11T04:30:48.115Z,15.99
2022-10-11T04:33:17.941Z,15.98
2022-10-11T04:35:50.367Z,15.97
2022-10-11T04:38:20.174Z,15.99
2022-10-11T04:40:49.963Z,15.98
2022-10-11T04:43:20.700Z,15.98
2022-10-11T04:45:55.252Z,15.94
2022-10-11T04:48:25.334Z,15.94
2022-10-11T04:50:58.025Z,15.91
2022-10-11T04:53:27.991Z,15.90
2022-10-11T04:56:02.136Z,15.89
2022-10-11T04:58:33.150Z,15.89
2022-10-11T05:01:03.368Z,15.90
2022-10-11T05:03:33.329Z,15.87
2022-10-11T05:06:07.490Z,15.86
2022-10-11T05:08:37.436Z,15.87
2022-10-11T05:11:09.228Z,15.83
2022-10-11T05:13:39.469Z,15.82
2022-10-11T05:16:11.365Z,15.81
2022-10-11T05:18:42.179Z,15.78
2022-10-11T05:21:19.774Z,15.76
2022-10-11T05:23:51.582Z,15.77
2022-10-11T05:26:22.353Z,15.77
2022-10-11T05:28:52.493Z,15.76
2022-10-11T05:31:22.525Z,15.77
2022-10-11T05:33:52.285Z,15.78
2022-10-11T05:36:24.846Z,15.76
2022-10-11T05:38:54.595Z,15.78
2022-10-11T05:41:24.680Z,15.81
2022-10-11T05:43:54.431Z,15.83
2022-10-11T05:46:26.908Z,15.83
2022-10-11T05:48:56.723Z,15.85
2022-10-11T05:51:29.195Z,15.86
2022-10-11T05:53:59.003Z,15.92
2022-10-11T05:56:29.556Z,16.02
2022-10-11T05:59:02.363Z,16.12
2022-10-11T06:01:32.739Z,16.24
2022-10-11T06:04:02.646Z,16.35
2022-10-11T06:06:35.133Z,16.44
2022-10-11T06:09:07.436Z,16.53
2022-10-11T06:11:37.569Z,16.65
2022-10-11T06:14:08.295Z,16.74
2022-10-11T06:16:38.242Z,16.86
2022-10-11T06:19:08.132Z,17.00
2022-10-11T06:21:40.542Z,17.09
2022-10-11T06:24:10.785Z,17.19
2022-10-11T06:26:40.947Z,17.28
2022-10-11T06:29:11.131Z,17.38
2022-10-11T06:31:40.934Z,17.48
2022-10-11T06:34:10.672Z,17.61
2022-10-11T06:36:43.083Z,17.71
2022-10-11T06:39:12.852Z,17.79
2022-10-11T06:41:42.691Z,17.87
2022-10-11T06:44:14.452Z,17.93
2022-10-11T06:46:44.418Z,18.05
2022-10-11T06:49:15.533Z,18.16
2022-10-11T06:51:49.577Z,18.27
2022-10-11T06:54:19.334Z,18.41
2022-10-11T06:56:49.095Z,18.52
2022-10-11T06:59:18.928Z,18.60
2022-10-11T07:01:48.851Z,18.69
2022-10-11T07:04:18.694Z,18.79
2022-10-11T07:06:53.387Z,18.92
2022-10-11T07:09:23.237Z,19.08
2022-10-11T07:11:52.991Z,19.22
2022-10-11T07:14:22.772Z,19.34
2022-10-11T07:16:52.510Z,19.41
2022-10-11T07:19:22.432Z,19.53
2022-10-11T07:21:54.876Z,19.61
2022-10-11T07:24:24.800Z,19.72
2022-10-11T07:26:54.608Z,19.83
2022-10-11T07:29:24.519Z,19.89
2022-10-11T07:31:54.372Z,19.96
2022-10-11T07:34:24.363Z,20.05
2022-10-11T07:36:56.716Z,20.13
2022-10-11T07:39:26.529Z,20.20
2022-10-11T07:41:56.257Z,20.27
2022-10-11T07:44:25.985Z,20.37
2022-10-11T07:46:55.762Z,20.41
2022-10-11T07:49:25.575Z,20.42
2022-10-11T07:51:57.866Z,20.50
2022-10-11T07:54:27.633Z,20.62
2022-10-11T07:56:57.451Z,20.74
2022-10-11T07:59:27.248Z,20.83
2022-10-11T08:01:57.071Z,20.97
2022-10-11T08:04:26.928Z,21.07
2022-10-11T08:06:59.269Z,21.17
2022-10-11T08:09:29.525Z,21.14
2022-10-11T08:11:59.505Z,21.16
2022-10-11T08:14:29.213Z,21.22
2022-10-11T08:16:58.973Z,21.31
2022-10-11T08:19:28.751Z,21.41
2022-10-11T08:22:01.098Z,21.50
2022-10-11T08:24:33.527Z,21.60
2022-10-11T08:27:17.617Z,21.71
2022-10-11T08:29:57.689Z,21.82
2022-10-11T08:32:40.465Z,21.95
2022-10-11T08:35:20.601Z,22.12
2022-10-11T08:38:03.309Z,22.24
2022-10-11T08:40:49.527Z,22.39
2022-10-11T08:43:38.844Z,22.58
2022-10-11T08:46:24.470Z,22.79
2022-10-11T08:49:05.262Z,22.91
2022-10-11T08:51:48.941Z,23.02
2022-10-11T08:54:42.843Z,23.15
2022-10-11T08:57:25.124Z,23.32
2022-10-11T09:00:00.428Z,23.52
2022-10-11T09:03:06.946Z,23.80
2022-10-11T09:05:37.969Z,24.05
2022-10-11T09:08:24.166Z,24.22
2022-10-11T09:11:14.019Z,24.33
2022-10-11T09:14:26.628Z,24.57
2022-10-11T09:17:14.624Z,24.85
2022-10-11T09:20:10.719Z,25.16
2022-10-11T09:22:59.238Z,25.60
2022-10-11T09:25:50.352Z,25.83
2022-10-11T09:28:31.087Z,25.93
2022-10-11T09:31:01.712Z,26.20
2022-10-11T09:33:36.360Z,26.58
2022-10-11T09:36:19.284Z,27.05
2022-10-11T09:38:54.539Z,27.62
2022-10-11T09:41:32.103Z,27.99
2022-10-11T09:44:05.123Z,28.40
2022-10-11T09:46:39.303Z,28.78
2022-10-11T09:49:14.116Z,29.21
2022-10-11T09:51:47.664Z,29.76
2022-10-11T09:54:17.512Z,30.17
2022-10-11T09:56:48.924Z,30.61
2022-10-11T09:59:29.564Z,31.17
2022-10-11T10:02:24.683Z,31.88
2022-10-11T10:05:06.373Z,32.36
2022-10-11T10:07:38.071Z,32.74
2022-10-11T10:10:32.305Z,33.00
2022-10-11T10:13:04.649Z,33.00
2022-10-11T10:15:38.621Z,33.11
2022-10-11T10:18:10.594Z,33.41
2022-10-11T10:20:41.064Z,33.38
2022-10-11T10:23:13.798Z,33.51
2022-10-11T10:25:43.875Z,33.74
2022-10-11T10:28:24.137Z,33.86
2022-10-11T10:30:59.969Z,33.48
2022-10-11T10:33:34.108Z,33.01
2022-10-11T10:36:10.124Z,31.44
2022-10-11T10:38:48.647Z,30.31
2022-10-11T10:41:22.509Z,30.07
2022-10-11T10:43:55.560Z,30.21
2022-10-11T10:46:46.064Z,30.33
2022-10-11T10:49:48.388Z,30.50
2022-10-11T10:52:35.844Z,30.64
2022-10-11T10:55:16.883Z,30.71
2022-10-11T10:57:59.736Z,30.34
2022-10-11T11:00:36.905Z,29.69
2022-10-11T11:03:12.736Z,29.04
2022-10-11T11:05:50.527Z,28.82
2022-10-11T11:08:34.690Z,29.33
2022-10-11T11:11:11.151Z,29.77
2022-10-11T11:13:47.872Z,30.00
2022-10-11T11:16:26.449Z,30.15
2022-10-11T11:19:09.129Z,30.21
2022-10-11T11:21:50.390Z,29.82
2022-10-11T11:24:32.130Z,29.34
2022-10-11T11:27:09.177Z,29.41
2022-10-11T11:29:55.322Z,29.88
2022-10-11T11:32:37.146Z,29.74
2022-10-11T11:35:14.974Z,28.90
2022-10-11T11:37:47.719Z,27.99
2022-10-11T11:40:20.685Z,27.14
2022-10-11T11:42:53.754Z,26.41
2022-10-11T11:45:27.640Z,25.81
2022-10-11T11:48:04.805Z,25.40
2022-10-11T11:50:45.960Z,25.98
2022-10-11T11:53:19.099Z,25.82
2022-10-11T11:55:57.160Z,25.34
2022-10-11T11:58:38.139Z,24.86
2022-10-11T12:01:17.943Z,24.50
2022-10-11T12:03:51.059Z,24.22
2022-10-11T12:07:04.042Z,24.06
2022-10-11T12:09:33.244Z,24.49
2022-10-11T12:12:06.888Z,25.49
2022-10-11T12:14:41.962Z,27.03
2022-10-11T12:17:19.187Z,28.39
2022-10-11T12:20:09.512Z,29.59
2022-10-11T12:22:55.264Z,30.73
2022-10-11T12:26:18.945Z,32.53
2022-10-11T12:29:18.578Z,34.82
2022-10-11T12:31:51.938Z,35.93
2022-10-11T12:34:37.882Z,36.55
2022-10-11T12:37:37.837Z,36.35
2022-10-11T12:40:47.041Z,35.70
2022-10-11T12:43:55.649Z,34.29
2022-10-11T12:46:49.307Z,32.06
2022-10-11T12:49:29.645Z,30.07
2022-10-11T12:52:03.573Z,28.58
2022-10-11T12:55:06.087Z,27.39
2022-10-11T12:58:10.059Z,26.33
2022-10-11T13:00:46.675Z,25.59
2022-10-11T13:03:32.828Z,25.05
2022-10-11T13:06:03.533Z,24.78
2022-10-11T13:08:40.373Z,24.55
2022-10-11T13:11:20.354Z,24.37
2022-10-11T13:13:58.250Z,24.24
2022-10-11T13:16:30.590Z,24.13
2022-10-11T13:19:02.718Z,23.94
2022-10-11T13:21:36.258Z,23.77
2022-10-11T13:24:14.583Z,23.63
2022-10-11T13:26:45.822Z,23.50
2022-10-11T13:29:23.947Z,23.34
2022-10-11T13:31:53.859Z,23.24
2022-10-11T13:34:24.545Z,23.17
2022-10-11T13:36:58.543Z,23.10
2022-10-11T13:39:31.870Z,23.02
2022-10-11T13:42:03.718Z,22.91
2022-10-11T13:44:38.671Z,22.87
2022-10-11T13:47:09.046Z,22.81
2022-10-11T13:49:41.303Z,22.78
2022-10-11T13:52:23.818Z,22.76
2022-10-11T13:55:01.263Z,22.77
2022-10-11T13:57:38.673Z,22.73
2022-10-11T14:00:30.677Z,22.72
2022-10-11T14:03:05.198Z,22.68
2022-10-11T14:05:38.540Z,22.62
2022-10-11T14:08:10.707Z,22.60
2022-10-11T14:10:40.553Z,22.55
2022-10-11T14:13:25.757Z,22.49
2022-10-11T14:16:10.250Z,22.48
2022-10-11T14:18:45.524Z,22.44
2022-10-11T14:21:37.918Z,22.39
2022-10-11T14:24:10.689Z,22.33
2022-10-11T14:26:42.479Z,22.28
2022-10-11T14:29:17.503Z,22.24
2022-10-11T14:31:50.119Z,22.23
2022-10-11T14:34:22.995Z,22.19
2022-10-11T14:36:54.092Z,22.13
2022-10-11T14:39:26.174Z,22.11
2022-10-11T14:41:56.656Z,22.06
2022-10-11T14:44:26.529Z,22.04
2022-10-11T14:46:59.101Z,22.00
2022-10-11T14:49:32.344Z,21.96
2022-10-11T14:52:02.332Z,21.95
2022-10-11T14:54:33.281Z,21.94
2022-10-11T14:57:08.495Z,21.92
2022-10-11T14:59:39.760Z,21.90
2022-10-11T15:02:14.408Z,21.88
2022-10-11T15:04:44.262Z,21.83
2022-10-11T15:07:15.543Z,21.81
2022-10-11T15:09:45.314Z,21.81
2022-10-11T15:12:15.117Z,21.79
2022-10-11T15:14:44.922Z,21.74
2022-10-11T15:17:17.480Z,21.70
2022-10-11T15:19:47.599Z,21.66
2022-10-11T15:22:17.487Z,21.60
2022-10-11T15:24:51.520Z,21.56
2022-10-11T15:27:25.457Z,21.52
2022-10-11T15:29:55.224Z,21.49
2022-10-11T15:32:27.783Z,21.43
2022-10-11T15:34:57.515Z,21.42
2022-10-11T15:37:27.479Z,21.39
2022-10-11T15:39:57.280Z,21.36
2022-10-11T15:42:27.102Z,21.31
2022-10-11T15:44:56.938Z,21.27
2022-10-11T15:47:29.361Z,21.23
2022-10-11T15:49:59.225Z,21.19
2022-10-11T15:52:29.169Z,21.16
2022-10-11T15:54:58.977Z,21.14
2022-10-11T15:57:28.795Z,21.10
2022-10-11T15:59:59.229Z,21.05
2022-10-11T16:02:31.928Z,21.00
2022-10-11T16:05:01.918Z,20.99
2022-10-11T16:07:31.981Z,20.97
2022-10-11T16:10:01.748Z,20.91
2022-10-11T16:12:31.514Z,20.87
2022-10-11T16:15:01.444Z,20.81
2022-10-11T16:17:36.865Z,20.76
2022-10-11T16:20:08.132Z,20.73
2022-10-11T16:22:38.667Z,20.67
2022-10-11T16:25:08.609Z,20.62
2022-10-11T16:27:38.520Z,20.56
2022-10-11T16:30:13.958Z,20.51
2022-10-11T16:32:46.900Z,20.45
2022-10-11T16:35:19.122Z,20.40
2022-10-11T16:37:52.014Z,20.37
2022-10-11T16:40:23.638Z,20.30
2022-10-11T16:42:53.631Z,20.25
2022-10-11T16:45:23.520Z,20.20
2022-10-11T16:47:55.995Z,20.14
2022-10-11T16:50:26.306Z,20.08
2022-10-11T16:53:03.705Z,20.04
2022-10-11T16:55:33.471Z,19.99
2022-10-11T16:58:03.311Z,19.96
2022-10-11T17:00:33.134Z,19.92
2022-10-11T17:03:05.543Z,19.89
2022-10-11T17:05:35.371Z,19.86
2022-10-11T17:08:05.393Z,19.80
2022-10-11T17:10:44.508Z,19.76
2022-10-11T17:13:14.349Z,19.72
2022-10-11T17:15:44.231Z,19.67
2022-10-11T17:18:16.668Z,19.62
2022-10-11T17:20:46.903Z,19.57
2022-10-11T17:23:16.762Z,19.53
2022-10-11T17:25:47.921Z,19.50
2022-10-11T17:28:17.827Z,19.47
2022-10-11T17:30:55.926Z,19.41
2022-10-11T17:33:31.591Z,19.39
2022-10-11T17:36:04.877Z,19.33
2022-10-11T17:38:35.044Z,19.31
2022-10-11T17:41:09.476Z,19.28
2022-10-11T17:43:39.434Z,19.25
2022-10-11T17:46:10.125Z,19.21
2022-10-11T17:48:44.686Z,19.17
2022-10-11T17:51:22.812Z,19.13
2022-10-11T17:53:53.584Z,19.08
2022-10-11T17:56:31.318Z,19.03
2022-10-11T17:59:03.603Z,19.00
2022-10-11T18:01:33.522Z,18.97
2022-10-11T18:04:10.394Z,18.93
2022-10-11T18:06:43.584Z,18.93
2022-10-11T18:09:15.266Z,18.89
2022-10-11T18:11:45.738Z,18.87
2022-10-11T18:14:15.964Z,18.82
2022-10-11T18:17:01.336Z,18.78
2022-10-11T18:19:33.742Z,18.78
2022-10-11T18:22:07.014Z,18.76
2022-10-11T18:24:37.515Z,18.73
2022-10-11T18:27:07.483Z,18.68
2022-10-11T18:29:37.363Z,18.67
2022-10-11T18:32:07.249Z,18.63
2022-10-11T18:34:39.752Z,18.60
2022-10-11T18:37:09.490Z,18.57
2022-10-11T18:39:39.287Z,18.55
2022-10-11T18:42:09.797Z,18.50
2022-10-11T18:44:39.609Z,18.46
2022-10-11T18:47:09.431Z,18.38
2022-10-11T18:49:41.920Z,18.33
2022-10-11T18:52:12.508Z,18.29
2022-10-11T18:54:42.570Z,18.26
2022-10-11T18:57:12.537Z,18.24
2022-10-11T18:59:42.443Z,18.19
2022-10-11T19:02:13.789Z,18.16
2022-10-11T19:04:52.537Z,18.14
2022-10-11T19:07:26.783Z,18.11
2022-10-11T19:09:56.719Z,18.09
2022-10-11T19:12:26.587Z,18.06
2022-10-11T19:14:57.344Z,18.03
2022-10-11T19:17:27.376Z,18.01
2022-10-11T19:19:59.817Z,17.98
2022-10-11T19:22:29.615Z,17.97
2022-10-11T19:24:59.409Z,17.95
2022-10-11T19:27:30.630Z,17.91
2022-10-11T19:30:00.530Z,17.88
2022-10-11T19:32:30.406Z,17.86
2022-10-11T19:35:02.787Z,17.81
2022-10-11T19:37:33.033Z,17.81
2022-10-11T19:40:05.933Z,17.79
2022-10-11T19:42:35.899Z,17.77
2022-10-11T19:45:08.306Z,17.75
2022-10-11T19:47:40.188Z,17.75
2022-10-11T19:50:13.053Z,17.73
2022-10-11T19:52:48.411Z,17.73
2022-10-11T19:55:18.363Z,17.68
2022-10-11T19:57:48.116Z,17.66
2022-10-11T20:00:19.051Z,17.61
2022-10-11T20:02:48.915Z,17.62
2022-10-11T20:05:21.577Z,17.59
2022-10-11T20:07:51.687Z,17.56
2022-10-11T20:10:25.188Z,17.53
2022-10-11T20:12:54.976Z,17.46
2022-10-11T20:15:24.712Z,17.40
2022-10-11T20:17:54.499Z,17.37
2022-10-11T20:20:27.202Z,17.34
2022-10-11T20:22:57.506Z,17.31
2022-10-11T20:25:27.318Z,17.29
2022-10-11T20:27:57.211Z,17.26
2022-10-11T20:30:27.169Z,17.23
2022-10-11T20:33:07.231Z,17.16
2022-10-11T20:35:39.955Z,17.13
2022-10-11T20:38:09.722Z,17.14
2022-10-11T20:40:42.866Z,17.11
2022-10-11T20:43:14.149Z,17.10
2022-10-11T20:45:44.506Z,17.11
2022-10-11T20:48:14.539Z,17.09
2022-10-11T20:50:49.468Z,17.06
2022-10-11T20:53:19.219Z,17.06
2022-10-11T20:55:49.181Z,17.01
2022-10-11T20:58:19.711Z,16.99
2022-10-11T21:00:50.199Z,16.97
2022-10-11T21:03:20.603Z,16.94
2022-10-11T21:06:00.730Z,16.93
2022-10-11T21:08:30.469Z,16.91
2022-10-11T21:11:00.321Z,16.87
2022-10-11T21:13:34.020Z,16.82
2022-10-11T21:16:08.063Z,16.77
2022-10-11T21:18:37.795Z,16.75
2022-10-11T21:21:12.343Z,16.71
2022-10-11T21:23:42.498Z,16.71
2022-10-11T21:26:14.833Z,16.69
2022-10-11T21:28:44.762Z,16.66
2022-10-11T21:31:18.259Z,16.62
2022-10-11T21:33:48.547Z,16.60
2022-10-11T21:36:25.046Z,16.52
2022-10-11T21:38:56.031Z,16.49
2022-10-11T21:41:29.137Z,16.47
2022-10-11T21:43:59.246Z,16.47
2022-10-11T21:49:21.943Z,16.41
2022-10-11T21:51:54.587Z,16.37
2022-10-11T21:54:24.396Z,16.36
2022-10-11T21:56:54.415Z,16.33
2022-10-11T21:59:24.283Z,16.33
2022-10-11T22:01:58.075Z,16.29
2022-10-11T22:04:30.606Z,16.25
2022-10-11T22:07:03.130Z,16.21
2022-10-11T22:09:35.034Z,16.19
2022-10-11T22:12:05.016Z,16.15
2022-10-11T22:14:37.600Z,16.16
2022-10-11T22:17:07.355Z,16.13
2022-10-11T22:19:37.215Z,16.13
2022-10-11T22:22:09.571Z,16.11
2022-10-11T22:24:39.364Z,16.13
2022-10-11T22:27:09.212Z,16.13
2022-10-11T22:29:39.158Z,16.12
2022-10-11T22:32:11.597Z,16.10
2022-10-11T22:34:41.468Z,16.09
2022-10-11T22:37:13.986Z,16.05
2022-10-11T22:39:43.802Z,16.03
2022-10-11T22:42:13.687Z,15.99
2022-10-11T22:44:43.461Z,15.94
2022-10-11T22:47:13.237Z,15.90
2022-10-11T22:49:43.052Z,15.87
2022-10-11T22:52:18.122Z,15.82
2022-10-11T22:54:48.142Z,15.81
2022-10-11T22:57:18.277Z,15.80
2022-10-11T22:59:48.376Z,15.77
2022-10-11T23:02:18.282Z,15.76
2022-10-11T23:04:48.276Z,15.75
2022-10-11T23:07:22.884Z,15.76
2022-10-11T23:09:52.724Z,15.77
2022-10-11T23:12:22.606Z,15.76
2022-10-11T23:14:52.405Z,15.71
2022-10-11T23:17:22.415Z,15.69
2022-10-11T23:19:52.745Z,15.65
2022-10-11T23:22:25.211Z,15.63
2022-10-11T23:24:55.687Z,15.63
2022-10-11T23:27:25.510Z,15.62
2022-10-11T23:29:56.022Z,15.60
2022-10-11T23:32:26.048Z,15.58
2022-10-11T23:34:56.065Z,15.52
2022-10-11T23:37:30.941Z,15.47
2022-10-11T23:40:01.537Z,15.43
2022-10-11T23:42:31.392Z,15.40
2022-10-11T23:45:01.407Z,15.37
2022-10-11T23:47:31.298Z,15.33
2022-10-11T23:50:01.095Z,15.32
2022-10-11T23:52:33.487Z,15.29
2022-10-11T23:55:05.187Z,15.29
2022-10-11T23:57:35.257Z,15.27
